Time;durP1;ratioP1;P1;durP2;ratioP2;P2;SDS_P1;SDS_P2;PMS_P1;PMS_P2;Temp;Humidity;BMP_temperature;BMP_pressure;BME280_temperature;BME280_humidity;BME280_pressure;Samples;Min_cycle;Max_cycle;Signal;HPM_P1;HPM_P2
2022/02/17 00:00:21;;;;;;;;;;;19.50;46.90;;;;;;5096374;28;19920;-64
2022/02/17 00:02:49;;;;;;;;;;;19.40;46.90;;;;;;5096544;28;19915;-64
2022/02/17 00:05:15;;;;;;;;;;;19.40;46.90;;;;;;5096539;28;20411;-64
2022/02/17 00:07:40;;;;;;;;;;;19.40;47.00;;;;;;5096727;28;19987;-65
2022/02/17 00:10:06;;;;;;;;;;;19.50;46.90;;;;;;5096527;28;19977;-64
2022/02/17 00:12:32;;;;;;;;;;;19.50;47.00;;;;;;5096172;28;20421;-65
2022/02/17 00:14:57;;;;;;;;;;;19.40;46.90;;;;;;5096411;28;19908;-64
2022/02/17 00:17:23;;;;;;;;;;;19.40;46.90;;;;;;5096423;28;19919;-64
2022/02/17 00:19:49;;;;;;;;;;;19.40;46.90;;;;;;5096217;28;19916;-64
2022/02/17 00:22:14;;;;;;;;;;;19.40;46.90;;;;;;5096313;28;20287;-65
2022/02/17 00:24:40;;;;;;;;;;;19.40;47.00;;;;;;5096542;28;20006;-64
2022/02/17 00:27:06;;;;;;;;;;;19.40;46.90;;;;;;5096514;28;19915;-64
2022/02/17 00:29:31;;;;;;;;;;;19.40;46.90;;;;;;5078084;28;20434;-65
2022/02/17 00:31:57;;;;;;;;;;;19.40;47.00;;;;;;5078060;28;20118;-64
2022/02/17 00:34:23;;;;;;;;;;;19.40;47.00;;;;;;5096111;28;20023;-64
2022/02/17 00:36:48;;;;;;;;;;;19.30;47.00;;;;;;5095851;28;19912;-64
2022/02/17 00:39:14;;;;;;;;;;;19.30;47.00;;;;;;5077601;28;20302;-65
2022/02/17 00:41:39;;;;;;;;;;;19.30;47.10;;;;;;5095731;28;20366;-64
2022/02/17 00:44:04;;;;;;;;;;;19.30;47.00;;;;;;5095904;28;19908;-65
2022/02/17 00:46:30;;;;;;;;;;;19.30;46.90;;;;;;5095858;28;19962;-65
2022/02/17 00:48:55;;;;;;;;;;;19.30;46.80;;;;;;5095515;28;19916;-64
2022/02/17 00:51:21;;;;;;;;;;;19.20;47.10;;;;;;5095661;28;19969;-65
2022/02/17 00:53:46;;;;;;;;;;;19.30;47.10;;;;;;5095736;28;19908;-64
2022/02/17 00:56:12;;;;;;;;;;;19.30;47.10;;;;;;5095560;28;19908;-65
2022/02/17 00:58:37;;;;;;;;;;;19.30;47.10;;;;;;5095366;28;19909;-64
2022/02/17 01:01:03;;;;;;;;;;;19.30;47.20;;;;;;5095408;28;20025;-64
2022/02/17 01:03:28;;;;;;;;;;;19.20;47.10;;;;;;5095725;28;20347;-64
2022/02/17 01:05:54;;;;;;;;;;;19.20;47.10;;;;;;5095474;28;20276;-64
2022/02/17 01:08:19;;;;;;;;;;;19.20;47.00;;;;;;5095838;28;19995;-65
2022/02/17 01:10:45;;;;;;;;;;;19.20;46.90;;;;;;5095409;28;19988;-64
2022/02/17 01:13:10;;;;;;;;;;;19.20;47.10;;;;;;5095382;28;20356;-64
2022/02/17 01:15:35;;;;;;;;;;;19.20;47.20;;;;;;5095736;28;19954;-64
2022/02/17 01:18:01;;;;;;;;;;;19.10;47.10;;;;;;5095395;28;19908;-65
2022/02/17 01:20:26;;;;;;;;;;;19.10;47.30;;;;;;5095299;28;19931;-66
2022/02/17 01:22:52;;;;;;;;;;;19.10;47.20;;;;;;5077138;28;19915;-64
2022/02/17 01:25:17;;;;;;;;;;;19.10;47.10;;;;;;5095275;28;19908;-64
2022/02/17 01:27:43;;;;;;;;;;;19.10;47.30;;;;;;5095095;28;20409;-64
2022/02/17 01:30:09;;;;;;;;;;;19.10;47.20;;;;;;5095063;28;20403;-64
2022/02/17 01:32:35;;;;;;;;;;;19.10;47.20;;;;;;5094937;28;19912;-64
2022/02/17 01:35:00;;;;;;;;;;;19.10;47.20;;;;;;5094871;28;19999;-64
2022/02/17 01:37:25;;;;;;;;;;;19.10;47.20;;;;;;5094940;28;19908;-65
2022/02/17 01:39:51;;;;;;;;;;;19.00;47.20;;;;;;5094698;28;19916;-64
2022/02/17 01:42:17;;;;;;;;;;;19.10;47.20;;;;;;5094771;28;19915;-65
2022/02/17 01:44:42;;;;;;;;;;;19.00;47.20;;;;;;5094696;28;19931;-65
2022/02/17 01:47:09;;;;;;;;;;;19.00;47.20;;;;;;5094741;28;19909;-64
2022/02/17 01:49:34;;;;;;;;;;;19.00;47.10;;;;;;5095206;28;19908;-64
2022/02/17 01:52:00;;;;;;;;;;;19.00;47.30;;;;;;5094726;28;19916;-64
2022/02/17 01:54:26;;;;;;;;;;;19.00;47.30;;;;;;5094816;28;20356;-64
2022/02/17 01:56:51;;;;;;;;;;;19.00;47.30;;;;;;5076221;28;19912;-64
2022/02/17 01:59:17;;;;;;;;;;;19.00;47.30;;;;;;5094144;28;19920;-65
2022/02/17 02:01:42;;;;;;;;;;;19.00;47.40;;;;;;5093306;28;19978;-64
2022/02/17 02:04:08;;;;;;;;;;;18.90;47.30;;;;;;5094282;28;19915;-65
2022/02/17 02:06:33;;;;;;;;;;;19.00;47.40;;;;;;5094385;28;19908;-64
2022/02/17 02:09:00;;;;;;;;;;;19.00;47.30;;;;;;5094113;28;20294;-64
2022/02/17 02:11:25;;;;;;;;;;;18.90;47.30;;;;;;5076053;28;20285;-64
2022/02/17 02:13:51;;;;;;;;;;;18.90;47.40;;;;;;5094198;28;19908;-64
2022/02/17 02:16:16;;;;;;;;;;;19.00;47.40;;;;;;5094057;28;19908;-64
2022/02/17 02:18:42;;;;;;;;;;;18.90;47.40;;;;;;5094460;28;19915;-64
2022/02/17 02:21:07;;;;;;;;;;;18.90;47.30;;;;;;5093989;28;19916;-64
2022/02/17 02:23:33;;;;;;;;;;;18.90;47.30;;;;;;5093954;28;20007;-64
2022/02/17 02:25:59;;;;;;;;;;;19.00;47.30;;;;;;5093996;28;19955;-64
2022/02/17 02:28:25;;;;;;;;;;;18.90;47.40;;;;;;5094196;28;19912;-65
2022/02/17 02:30:51;;;;;;;;;;;18.90;47.20;;;;;;5093800;28;20386;-64
2022/02/17 02:33:17;;;;;;;;;;;19.00;47.40;;;;;;5093753;28;19908;-64
2022/02/17 02:35:43;;;;;;;;;;;19.00;47.40;;;;;;5093983;28;19908;-64
2022/02/17 02:38:09;;;;;;;;;;;18.90;47.40;;;;;;5093706;28;19908;-64
2022/02/17 02:40:34;;;;;;;;;;;18.90;47.10;;;;;;5075429;28;19920;-64
2022/02/17 02:43:00;;;;;;;;;;;18.90;47.40;;;;;;5093758;28;19912;-64
2022/02/17 02:45:26;;;;;;;;;;;18.90;47.30;;;;;;5093797;28;20329;-64
2022/02/17 02:47:51;;;;;;;;;;;18.90;47.40;;;;;;5093616;28;19908;-64
2022/02/17 02:50:16;;;;;;;;;;;19.00;47.40;;;;;;5093625;28;20275;-64
2022/02/17 02:52:42;;;;;;;;;;;19.00;47.40;;;;;;5093427;28;19908;-64
2022/02/17 02:55:08;;;;;;;;;;;19.00;47.30;;;;;;5093508;28;19938;-64
2022/02/17 02:57:33;;;;;;;;;;;18.90;47.30;;;;;;5093441;28;19908;-64
2022/02/17 02:59:59;;;;;;;;;;;19.00;47.30;;;;;;5075034;28;19928;-64
2022/02/17 03:02:24;;;;;;;;;;;19.00;47.30;;;;;;5093380;28;19942;-64
2022/02/17 03:04:50;;;;;;;;;;;19.00;47.30;;;;;;5075263;28;19908;-64
2022/02/17 03:07:15;;;;;;;;;;;19.00;47.20;;;;;;5093308;28;19915;-64
2022/02/17 03:09:40;;;;;;;;;;;19.00;47.40;;;;;;5093313;28;19927;-64
2022/02/17 03:12:06;;;;;;;;;;;19.00;47.30;;;;;;5093100;28;19915;-64
2022/02/17 03:14:32;;;;;;;;;;;19.00;47.30;;;;;;5093298;28;19912;-64
2022/02/17 03:16:57;;;;;;;;;;;19.00;47.30;;;;;;5093294;28;19908;-64
2022/02/17 03:19:22;;;;;;;;;;;19.00;47.30;;;;;;5093320;28;20287;-64
2022/02/17 03:21:48;;;;;;;;;;;19.00;47.30;;;;;;5093191;28;20260;-65
2022/02/17 03:24:13;;;;;;;;;;;19.00;47.20;;;;;;5093070;28;20256;-65
2022/02/17 03:26:39;;;;;;;;;;;19.00;47.20;;;;;;5075152;28;20275;-64
2022/02/17 03:29:04;;;;;;;;;;;19.00;47.30;;;;;;5093151;28;19927;-64
2022/02/17 03:31:30;;;;;;;;;;;19.00;47.20;;;;;;5093073;28;19912;-64
2022/02/17 03:33:56;;;;;;;;;;;19.00;47.20;;;;;;5093058;28;19909;-65
2022/02/17 03:36:21;;;;;;;;;;;19.00;47.20;;;;;;5074581;28;20006;-64
2022/02/17 03:38:47;;;;;;;;;;;19.00;47.20;;;;;;5092728;28;19912;-64
2022/02/17 03:41:12;;;;;;;;;;;19.00;47.20;;;;;;5092615;28;19960;-64
2022/02/17 03:43:37;;;;;;;;;;;18.90;47.10;;;;;;5092534;28;19908;-64
2022/02/17 03:46:03;;;;;;;;;;;19.00;47.20;;;;;;5092672;28;19916;-64
2022/02/17 03:48:28;;;;;;;;;;;19.00;47.20;;;;;;5092698;28;19908;-64
2022/02/17 03:50:54;;;;;;;;;;;19.00;47.20;;;;;;5092597;28;19915;-64
2022/02/17 03:53:19;;;;;;;;;;;19.00;47.00;;;;;;5092511;28;20002;-64
2022/02/17 03:55:45;;;;;;;;;;;18.90;47.20;;;;;;5092702;28;20287;-65
2022/02/17 03:59:00;;;;;;;;;;;18.90;47.10;;;;;;5092844;28;19947;-65
2022/02/17 04:00:55;;;;;;;;;;;18.90;47.10;;;;;;5092552;28;19920;-64
2022/02/17 04:03:21;;;;;;;;;;;19.00;47.10;;;;;;5092875;28;19908;-64
2022/02/17 04:05:46;;;;;;;;;;;19.00;47.10;;;;;;5092736;28;19912;-64
2022/02/17 04:08:12;;;;;;;;;;;19.00;47.00;;;;;;5074685;28;19916;-65
2022/02/17 04:10:38;;;;;;;;;;;18.90;47.00;;;;;;5092937;28;19932;-64
2022/02/17 04:13:03;;;;;;;;;;;19.00;47.00;;;;;;5074547;28;20352;-64
2022/02/17 04:15:29;;;;;;;;;;;18.90;47.00;;;;;;5092671;28;20481;-64
2022/02/17 04:17:54;;;;;;;;;;;18.90;46.90;;;;;;5074510;28;19954;-64
2022/02/17 04:20:19;;;;;;;;;;;18.90;46.80;;;;;;5092500;28;20278;-64
2022/02/17 04:22:45;;;;;;;;;;;18.90;47.00;;;;;;5092588;28;20308;-65
2022/02/17 04:25:10;;;;;;;;;;;18.90;46.90;;;;;;5095408;28;20344;-64
2022/02/17 04:27:36;;;;;;;;;;;18.90;46.90;;;;;;5096158;28;20380;-64
2022/02/17 04:30:02;;;;;;;;;;;18.90;46.90;;;;;;5096072;28;20332;-64
2022/02/17 04:32:28;;;;;;;;;;;18.90;46.80;;;;;;5077805;28;19908;-64
2022/02/17 04:34:53;;;;;;;;;;;18.90;46.80;;;;;;5095967;28;19908;-64
2022/02/17 04:37:18;;;;;;;;;;;18.90;46.80;;;;;;5096348;28;19908;-64
2022/02/17 04:39:44;;;;;;;;;;;18.90;46.80;;;;;;5095930;28;19908;-64
2022/02/17 04:42:18;;;;;;;;;;;18.90;46.80;;;;;;5077742;28;19966;-64
2022/02/17 04:44:47;;;;;;;;;;;18.90;46.80;;;;;;5095810;28;19946;-64
2022/02/17 04:47:13;;;;;;;;;;;18.90;46.70;;;;;;5077611;28;20279;-65
2022/02/17 04:49:39;;;;;;;;;;;18.90;46.70;;;;;;5095573;28;19908;-64
2022/02/17 04:52:05;;;;;;;;;;;18.80;46.70;;;;;;5095645;28;19908;-64
2022/02/17 04:54:30;;;;;;;;;;;18.90;46.70;;;;;;5095605;28;20011;-64
2022/02/17 04:56:56;;;;;;;;;;;18.90;46.70;;;;;;5095999;28;20037;-64
2022/02/17 04:59:21;;;;;;;;;;;18.90;46.60;;;;;;5095474;28;19920;-64
2022/02/17 05:01:47;;;;;;;;;;;18.90;46.60;;;;;;5095434;28;20329;-64
2022/02/17 05:04:12;;;;;;;;;;;18.90;46.60;;;;;;5095382;28;20372;-64
2022/02/17 05:06:38;;;;;;;;;;;18.80;46.50;;;;;;5095465;28;20287;-65
2022/02/17 05:09:03;;;;;;;;;;;18.90;46.50;;;;;;5095393;28;20424;-64
2022/02/17 05:11:29;;;;;;;;;;;18.90;46.50;;;;;;5095344;28;19908;-64
2022/02/17 05:13:54;;;;;;;;;;;18.90;46.50;;;;;;5095572;28;19958;-65
2022/02/17 05:16:20;;;;;;;;;;;18.90;46.40;;;;;;5095133;28;19916;-65
2022/02/17 05:18:45;;;;;;;;;;;18.80;46.40;;;;;;5095096;28;20340;-64
2022/02/17 05:21:11;;;;;;;;;;;18.90;46.40;;;;;;5094996;28;19950;-64
2022/02/17 05:23:36;;;;;;;;;;;18.90;46.30;;;;;;5076861;28;20264;-64
2022/02/17 05:26:02;;;;;;;;;;;18.90;46.40;;;;;;5094987;28;20281;-64
2022/02/17 05:28:27;;;;;;;;;;;18.90;46.30;;;;;;5094847;28;20283;-64
2022/02/17 05:30:53;;;;;;;;;;;18.90;46.30;;;;;;5094940;28;19908;-65
2022/02/17 05:33:18;;;;;;;;;;;19.00;46.30;;;;;;5076743;28;19912;-64
2022/02/17 05:35:44;;;;;;;;;;;19.00;46.20;;;;;;5094669;28;20295;-64
2022/02/17 05:38:09;;;;;;;;;;;19.00;46.20;;;;;;5076654;28;20295;-64
2022/02/17 05:40:35;;;;;;;;;;;19.00;46.20;;;;;;5094618;28;19916;-64
2022/02/17 05:43:01;;;;;;;;;;;19.00;46.10;;;;;;5094779;28;20007;-64
2022/02/17 05:45:27;;;;;;;;;;;19.00;46.10;;;;;;5094923;28;19908;-64
2022/02/17 05:47:53;;;;;;;;;;;19.00;46.10;;;;;;5094526;28;19912;-64
2022/02/17 05:50:19;;;;;;;;;;;19.00;46.10;;;;;;5094622;28;19936;-64
2022/02/17 05:52:45;;;;;;;;;;;19.00;46.00;;;;;;5094479;28;19915;-64
2022/02/17 05:55:10;;;;;;;;;;;19.00;46.00;;;;;;5095231;28;20015;-64
2022/02/17 05:57:35;;;;;;;;;;;19.00;46.00;;;;;;5094475;28;19994;-65
2022/02/17 06:00:01;;;;;;;;;;;19.00;46.00;;;;;;5075872;28;20026;-64
2022/02/17 06:02:26;;;;;;;;;;;19.00;46.00;;;;;;5094267;28;19916;-64
2022/02/17 06:04:52;;;;;;;;;;;19.00;46.00;;;;;;5094413;28;19908;-64
2022/02/17 06:07:18;;;;;;;;;;;19.00;46.00;;;;;;5094375;28;20279;-64
2022/02/17 06:09:44;;;;;;;;;;;19.00;46.00;;;;;;5094104;28;20360;-64
2022/02/17 06:12:10;;;;;;;;;;;19.00;46.00;;;;;;5094306;28;19919;-64
2022/02/17 06:14:35;;;;;;;;;;;19.00;45.90;;;;;;5075795;28;19908;-64
2022/02/17 06:17:01;;;;;;;;;;;19.00;45.90;;;;;;5093787;28;20334;-64
2022/02/17 06:19:27;;;;;;;;;;;19.00;45.90;;;;;;5093679;28;19915;-64
2022/02/17 06:21:52;;;;;;;;;;;19.00;45.90;;;;;;5093962;28;19974;-64
2022/02/17 06:24:18;;;;;;;;;;;19.00;45.80;;;;;;5093955;28;20006;-64
2022/02/17 06:26:43;;;;;;;;;;;19.00;45.80;;;;;;5093822;28;19909;-66
2022/02/17 06:29:08;;;;;;;;;;;19.00;45.80;;;;;;5075629;28;19946;-66
2022/02/17 06:31:34;;;;;;;;;;;19.00;45.80;;;;;;5093610;28;20364;-64
2022/02/17 06:33:59;;;;;;;;;;;19.00;45.80;;;;;;5093764;28;20431;-63
2022/02/17 06:36:26;;;;;;;;;;;19.00;45.80;;;;;;5093545;28;19914;-64
2022/02/17 06:38:51;;;;;;;;;;;19.00;45.80;;;;;;5093793;28;19908;-64
2022/02/17 06:41:18;;;;;;;;;;;19.10;45.70;;;;;;5093645;28;19916;-66
2022/02/17 06:43:44;;;;;;;;;;;19.00;45.70;;;;;;5093608;28;20245;-65
2022/02/17 06:46:10;;;;;;;;;;;19.00;45.70;;;;;;5093085;28;20416;-65
2022/02/17 06:48:35;;;;;;;;;;;19.10;45.70;;;;;;5093553;28;19912;-66
2022/02/17 06:51:01;;;;;;;;;;;19.10;45.70;;;;;;5075347;28;20349;-65
2022/02/17 06:53:26;;;;;;;;;;;19.10;45.60;;;;;;5093438;28;19931;-65
2022/02/17 06:55:52;;;;;;;;;;;19.10;45.70;;;;;;5075145;28;19953;-65
2022/02/17 06:58:17;;;;;;;;;;;19.10;45.80;;;;;;5093362;28;20025;-65
2022/02/17 07:00:42;;;;;;;;;;;19.00;45.70;;;;;;5093098;28;19935;-65
2022/02/17 07:03:08;;;;;;;;;;;19.00;45.80;;;;;;5075219;28;19908;-65
2022/02/17 07:05:34;;;;;;;;;;;19.00;45.80;;;;;;5093358;28;19915;-64
2022/02/17 07:08:00;;;;;;;;;;;18.90;45.80;;;;;;5093289;28;19919;-64
2022/02/17 07:13:10;;;;;;;;;;;18.90;45.80;;;;;;5093513;28;20100;-64
2022/02/17 07:15:36;;;;;;;;;;;18.90;45.80;;;;;;5093074;28;19908;-64
2022/02/17 07:18:05;;;;;;;;;;;19.00;45.80;;;;;;5093155;28;19950;-64
2022/02/17 07:20:32;;;;;;;;;;;18.90;45.80;;;;;;5075027;28;19985;-64
2022/02/17 07:22:58;;;;;;;;;;;18.90;45.80;;;;;;5093138;28;19908;-64
2022/02/17 07:25:24;;;;;;;;;;;18.90;45.80;;;;;;5093271;28;19915;-64
2022/02/17 07:27:49;;;;;;;;;;;19.00;45.70;;;;;;5093010;28;19912;-64
2022/02/17 07:30:14;;;;;;;;;;;19.00;45.70;;;;;;5074916;28;20409;-66
2022/02/17 07:32:40;;;;;;;;;;;19.00;45.60;;;;;;5092937;28;20371;-66
2022/02/17 07:35:06;;;;;;;;;;;18.90;45.60;;;;;;5092916;28;19915;-66
2022/02/17 07:37:32;;;;;;;;;;;18.90;45.70;;;;;;5092948;28;19931;-66
2022/02/17 07:39:57;;;;;;;;;;;18.90;45.60;;;;;;5092977;28;20253;-66
2022/02/17 07:42:22;;;;;;;;;;;18.90;45.60;;;;;;5092977;28;19912;-65
2022/02/17 07:44:48;;;;;;;;;;;18.90;45.60;;;;;;5092643;28;19975;-66
2022/02/17 07:47:13;;;;;;;;;;;18.90;45.70;;;;;;5092540;28;19913;-65
2022/02/17 07:49:39;;;;;;;;;;;18.40;45.20;;;;;;5092486;28;19920;-65
2022/02/17 07:52:04;;;;;;;;;;;18.50;45.60;;;;;;5092332;28;19912;-65
2022/02/17 07:54:30;;;;;;;;;;;18.70;45.70;;;;;;5084126;28;20359;-67
2022/02/17 07:56:55;;;;;;;;;;;18.80;45.80;;;;;;5076840;28;19970;-66
2022/02/17 07:59:21;;;;;;;;;;;18.80;45.60;;;;;;5089549;28;19963;-66
2022/02/17 08:01:46;;;;;;;;;;;18.90;45.70;;;;;;5074968;28;19921;-65
2022/02/17 08:04:12;;;;;;;;;;;18.90;45.60;;;;;;5078109;28;19954;-65
2022/02/17 08:06:38;;;;;;;;;;;18.90;45.50;;;;;;5086642;28;20403;-64
2022/02/17 08:09:04;;;;;;;;;;;19.00;45.50;;;;;;5077081;28;19919;-65
2022/02/17 08:11:29;;;;;;;;;;;19.00;45.50;;;;;;5096161;28;20003;-65
2022/02/17 08:13:55;;;;;;;;;;;19.00;45.50;;;;;;5077712;28;19908;-65
2022/02/17 08:16:23;;;;;;;;;;;19.00;45.40;;;;;;5091570;28;19913;-65
2022/02/17 08:18:48;;;;;;;;;;;19.00;45.40;;;;;;5074482;28;20292;-65
2022/02/17 08:21:17;;;;;;;;;;;19.00;45.40;;;;;;5075814;28;19950;-65
2022/02/17 08:23:42;;;;;;;;;;;19.00;45.40;;;;;;5075751;28;19908;-65
2022/02/17 08:26:08;;;;;;;;;;;19.00;45.40;;;;;;5078840;28;19923;-65
2022/02/17 08:28:33;;;;;;;;;;;19.10;45.30;;;;;;5095550;28;19927;-66
2022/02/17 08:30:59;;;;;;;;;;;19.00;45.30;;;;;;5087646;28;19913;-64
2022/02/17 08:33:24;;;;;;;;;;;19.00;45.50;;;;;;5082839;28;19966;-65
2022/02/17 08:35:50;;;;;;;;;;;19.00;44.40;;;;;;5075409;28;19970;-65
2022/02/17 08:38:15;;;;;;;;;;;19.00;45.50;;;;;;5075225;28;19912;-64
2022/02/17 08:40:41;;;;;;;;;;;19.00;45.40;;;;;;5057450;28;19917;-64
2022/02/17 08:43:09;;;;;;;;;;;19.10;45.20;;;;;;5088573;28;19912;-65
2022/02/17 08:45:39;;;;;;;;;;;19.10;45.10;;;;;;5095228;28;20367;-64
2022/02/17 08:48:05;;;;;;;;;;;19.10;45.10;;;;;;5095301;28;19908;-65
2022/02/17 08:50:30;;;;;;;;;;;19.20;45.20;;;;;;5082054;28;19916;-66
2022/02/17 08:52:56;;;;;;;;;;;19.10;45.10;;;;;;5076600;28;19912;-66
2022/02/17 08:55:21;;;;;;;;;;;19.10;45.20;;;;;;5094946;28;19912;-67
2022/02/17 08:57:48;;;;;;;;;;;19.20;45.10;;;;;;5095232;28;20351;-66
2022/02/17 09:00:16;;;;;;;;;;;19.20;45.10;;;;;;5094930;28;19920;-66
2022/02/17 09:02:42;;;;;;;;;;;19.20;45.10;;;;;;5095157;28;19908;-66
2022/02/17 09:05:07;;;;;;;;;;;19.20;45.10;;;;;;5095061;28;19916;-66
2022/02/17 09:07:33;;;;;;;;;;;19.20;45.20;;;;;;5090485;28;19912;-65
2022/02/17 09:09:58;;;;;;;;;;;19.20;45.10;;;;;;5056262;28;20357;-65
2022/02/17 09:12:28;;;;;;;;;;;19.20;45.10;;;;;;5056662;28;19912;-65
2022/02/17 09:14:54;;;;;;;;;;;19.20;45.10;;;;;;5079591;28;20356;-65
2022/02/17 09:17:19;;;;;;;;;;;19.30;45.10;;;;;;5090235;28;19919;-66
2022/02/17 09:19:45;;;;;;;;;;;19.30;45.00;;;;;;5074889;28;19913;-67
2022/02/17 09:22:10;;;;;;;;;;;19.30;45.10;;;;;;5059795;28;19921;-66
2022/02/17 09:24:36;;;;;;;;;;;19.30;45.10;;;;;;5074119;28;19912;-65
2022/02/17 09:27:01;;;;;;;;;;;19.30;45.10;;;;;;5075916;28;20007;-65
2022/02/17 09:29:27;;;;;;;;;;;19.30;45.10;;;;;;5074719;28;19913;-65
2022/02/17 09:31:52;;;;;;;;;;;19.30;45.10;;;;;;5073169;28;19920;-66
2022/02/17 09:34:18;;;;;;;;;;;19.30;45.00;;;;;;5074420;28;19935;-66
2022/02/17 09:36:43;;;;;;;;;;;19.30;45.00;;;;;;5074365;28;19908;-67
2022/02/17 09:39:09;;;;;;;;;;;19.30;44.90;;;;;;5080210;28;19965;-67
2022/02/17 09:41:34;;;;;;;;;;;19.30;45.00;;;;;;5079619;28;20073;-67
2022/02/17 09:44:07;;;;;;;;;;;19.30;45.00;;;;;;5073887;28;19967;-67
2022/02/17 09:46:34;;;;;;;;;;;19.30;45.00;;;;;;5100183;28;20284;-66
2022/02/17 09:49:03;;;;;;;;;;;19.30;44.90;;;;;;5087746;28;20003;-65
2022/02/17 09:51:29;;;;;;;;;;;19.30;44.90;;;;;;5072833;28;19909;-67
2022/02/17 09:53:55;;;;;;;;;;;19.30;44.90;;;;;;5073815;28;20412;-66
2022/02/17 09:56:24;;;;;;;;;;;19.30;44.90;;;;;;5073933;28;20033;-66
2022/02/17 09:58:50;;;;;;;;;;;19.40;44.80;;;;;;5073398;28;19928;-64
2022/02/17 10:01:19;;;;;;;;;;;19.40;44.80;;;;;;5073291;28;19917;-66
2022/02/17 10:03:44;;;;;;;;;;;19.40;44.60;;;;;;5078867;28;19922;-66
2022/02/17 10:06:11;;;;;;;;;;;19.50;44.70;;;;;;5079085;28;20003;-65
2022/02/17 10:08:37;;;;;;;;;;;19.50;44.40;;;;;;5073779;28;19920;-65
2022/02/17 10:11:03;;;;;;;;;;;19.50;44.50;;;;;;5092778;28;19991;-65
2022/02/17 10:13:29;;;;;;;;;;;19.50;44.50;;;;;;5091541;28;19908;-66
2022/02/17 10:15:57;;;;;;;;;;;19.50;44.50;;;;;;5072142;28;19908;-65
2022/02/17 10:18:27;;;;;;;;;;;19.50;44.50;;;;;;5073404;28;19943;-66
2022/02/17 10:21:03;;;;;;;;;;;19.50;44.60;;;;;;5085953;28;19921;-67
2022/02/17 10:23:30;;;;;;;;;;;19.50;44.60;;;;;;5089923;28;19915;-67
2022/02/17 10:25:55;;;;;;;;;;;19.50;44.60;;;;;;5088853;28;19913;-66
2022/02/17 10:28:21;;;;;;;;;;;19.50;44.60;;;;;;5073030;28;20447;-66
2022/02/17 10:30:46;;;;;;;;;;;19.40;44.60;;;;;;5073222;28;19909;-66
2022/02/17 10:33:12;;;;;;;;;;;19.40;44.60;;;;;;5073319;28;19954;-67
2022/02/17 10:35:37;;;;;;;;;;;19.40;44.60;;;;;;5055542;28;19909;-65
2022/02/17 10:38:05;;;;;;;;;;;19.40;44.60;;;;;;5088474;28;20007;-66
2022/02/17 10:40:32;;;;;;;;;;;19.40;44.60;;;;;;5093037;28;20419;-65
2022/02/17 10:43:05;;;;;;;;;;;19.40;44.60;;;;;;5093427;28;20044;-65
2022/02/17 10:45:31;;;;;;;;;;;19.40;44.40;;;;;;5093390;28;20483;-66
2022/02/17 10:48:15;;;;;;;;;;;19.50;44.40;;;;;;5078638;28;19912;-65
2022/02/17 10:50:41;;;;;;;;;;;19.50;44.40;;;;;;5070911;28;20435;-65
2022/02/17 10:53:15;;;;;;;;;;;19.40;44.50;;;;;;5072863;28;19908;-64
2022/02/17 10:55:58;;;;;;;;;;;19.40;44.20;;;;;;5072578;28;20441;-65
2022/02/17 10:58:27;;;;;;;;;;;19.50;44.30;;;;;;5077909;28;19915;-65
2022/02/17 11:00:55;;;;;;;;;;;19.50;44.10;;;;;;5072603;28;19955;-66
2022/02/17 11:03:21;;;;;;;;;;;19.60;44.00;;;;;;5077611;28;19917;-66
2022/02/17 11:05:47;;;;;;;;;;;19.60;44.00;;;;;;5076649;28;20287;-67
2022/02/17 11:08:14;;;;;;;;;;;19.70;43.80;;;;;;5086528;28;19919;-66
2022/02/17 11:10:40;;;;;;;;;;;19.70;43.80;;;;;;5092302;28;19912;-66
2022/02/17 11:13:06;;;;;;;;;;;19.70;43.80;;;;;;5074697;28;20387;-66
2022/02/17 11:15:36;;;;;;;;;;;19.70;43.80;;;;;;5084018;28;19958;-66
2022/02/17 11:18:03;;;;;;;;;;;19.60;43.90;;;;;;5071256;28;20003;-66
2022/02/17 11:20:29;;;;;;;;;;;19.60;43.90;;;;;;5072515;28;19923;-66
2022/02/17 11:22:54;;;;;;;;;;;19.50;44.00;;;;;;5087565;28;19912;-66
2022/02/17 11:25:32;;;;;;;;;;;19.50;44.00;;;;;;5092565;28;19950;-66
2022/02/17 11:27:58;;;;;;;;;;;19.50;44.00;;;;;;5074525;28;20497;-65
2022/02/17 11:30:26;;;;;;;;;;;19.60;43.80;;;;;;5092858;28;19908;-65
2022/02/17 11:33:10;;;;;;;;;;;19.60;43.70;;;;;;5093615;28;19908;-66
2022/02/17 11:35:36;;;;;;;;;;;19.70;43.60;;;;;;5096365;28;20325;-65
2022/02/17 11:38:01;;;;;;;;;;;19.80;43.40;;;;;;5060667;28;19970;-66
2022/02/17 11:40:27;;;;;;;;;;;19.70;43.50;;;;;;5089202;28;19920;-67
2022/02/17 11:43:03;;;;;;;;;;;19.60;43.70;;;;;;5078133;28;19909;-67
2022/02/17 11:45:29;;;;;;;;;;;19.60;43.80;;;;;;5095546;28;19942;-67
2022/02/17 11:47:59;;;;;;;;;;;19.50;43.90;;;;;;5078069;28;20321;-67
2022/02/17 11:50:44;;;;;;;;;;;19.60;43.80;;;;;;5095388;28;19946;-67
2022/02/17 11:53:23;;;;;;;;;;;19.50;44.00;;;;;;5091702;28;19912;-67
2022/02/17 11:55:49;;;;;;;;;;;19.60;43.80;;;;;;5058040;28;19909;-68
2022/02/17 11:58:33;;;;;;;;;;;19.60;43.90;;;;;;5095013;28;19920;-66
2022/02/17 12:01:19;;;;;;;;;;;19.60;43.90;;;;;;5096231;28;19926;-66
2022/02/17 12:04:05;;;;;;;;;;;19.50;43.90;;;;;;5095857;28;19953;-66
2022/02/17 12:06:31;;;;;;;;;;;19.50;44.00;;;;;;5095083;28;19942;-66
2022/02/17 12:08:56;;;;;;;;;;;19.60;43.90;;;;;;5095949;28;19912;-65
2022/02/17 12:11:27;;;;;;;;;;;19.50;43.90;;;;;;5095139;28;19953;-67
2022/02/17 12:13:52;;;;;;;;;;;19.60;43.80;;;;;;5063333;28;19927;-67
2022/02/17 12:16:36;;;;;;;;;;;19.60;43.70;;;;;;5095391;28;20317;-65
2022/02/17 12:19:12;;;;;;;;;;;19.70;43.60;;;;;;5077514;28;19912;-66
2022/02/17 12:21:39;;;;;;;;;;;19.80;43.40;;;;;;5095393;28;19952;-66
2022/02/17 12:24:06;;;;;;;;;;;19.80;43.40;;;;;;5070219;28;19908;-66
2022/02/17 12:26:41;;;;;;;;;;;19.80;43.30;;;;;;5075200;28;19996;-67
2022/02/17 12:29:22;;;;;;;;;;;19.90;43.20;;;;;;5085208;28;20006;-66
2022/02/17 12:31:48;;;;;;;;;;;19.90;43.20;;;;;;5095389;28;19922;-67
2022/02/17 12:34:13;;;;;;;;;;;19.90;43.10;;;;;;5095150;28;19914;-68
2022/02/17 12:36:39;;;;;;;;;;;20.00;43.10;;;;;;5095744;28;20006;-67
2022/02/17 12:39:05;;;;;;;;;;;20.00;43.00;;;;;;5095516;28;20368;-65
2022/02/17 12:41:30;;;;;;;;;;;20.00;43.00;;;;;;5094364;28;19931;-67
2022/02/17 12:43:56;;;;;;;;;;;20.00;42.90;;;;;;5084558;28;20007;-68
2022/02/17 12:46:21;;;;;;;;;;;20.00;42.90;;;;;;5087767;28;19974;-67
2022/02/17 12:48:47;;;;;;;;;;;20.00;43.00;;;;;;5074864;28;20331;-67
2022/02/17 12:51:25;;;;;;;;;;;20.00;43.00;;;;;;5057108;28;19909;-66
2022/02/17 12:53:52;;;;;;;;;;;20.00;43.10;;;;;;5075960;28;19912;-66
2022/02/17 12:56:21;;;;;;;;;;;19.90;43.10;;;;;;5075137;28;19913;-66
2022/02/17 12:58:47;;;;;;;;;;;19.90;43.20;;;;;;5057034;28;19920;-65
2022/02/17 13:01:23;;;;;;;;;;;19.90;43.20;;;;;;5074791;28;20383;-68
2022/02/17 13:03:48;;;;;;;;;;;19.90;43.20;;;;;;5075027;28;20084;-66
2022/02/17 13:06:25;;;;;;;;;;;19.90;43.30;;;;;;5074867;28;20370;-67
2022/02/17 13:08:56;;;;;;;;;;;19.90;43.30;;;;;;5075177;28;19912;-65
2022/02/17 13:11:26;;;;;;;;;;;19.80;43.30;;;;;;5088988;28;20255;-65
2022/02/17 13:14:04;;;;;;;;;;;19.80;43.30;;;;;;5094101;28;20279;-66
2022/02/17 13:16:30;;;;;;;;;;;19.80;43.30;;;;;;5076663;28;20054;-66
2022/02/17 13:18:56;;;;;;;;;;;19.80;43.30;;;;;;5076526;28;19908;-66
2022/02/17 13:21:21;;;;;;;;;;;19.80;43.30;;;;;;5076171;28;20002;-65
2022/02/17 13:23:48;;;;;;;;;;;19.80;43.30;;;;;;5094738;28;19908;-66
2022/02/17 13:26:23;;;;;;;;;;;19.80;43.30;;;;;;5092947;28;19920;-66
2022/02/17 13:28:52;;;;;;;;;;;19.80;43.30;;;;;;5094355;28;19912;-66
2022/02/17 13:31:21;;;;;;;;;;;19.80;43.30;;;;;;5075862;28;20355;-66
2022/02/17 13:33:47;;;;;;;;;;;19.80;43.30;;;;;;5094517;28;19958;-66
2022/02/17 13:36:25;;;;;;;;;;;19.70;43.40;;;;;;5094510;28;20003;-66
2022/02/17 13:39:26;;;;;;;;;;;19.70;43.40;;;;;;5086633;28;19920;-65
2022/02/17 13:42:03;;;;;;;;;;;19.60;42.90;;;;;;5013968;28;19922;-65
2022/02/17 13:44:37;;;;;;;;;;;19.40;42.10;;;;;;5065938;28;19909;-65
2022/02/17 13:47:04;;;;;;;;;;;19.40;43.20;;;;;;5073614;28;20331;-67
2022/02/17 13:49:29;;;;;;;;;;;19.40;43.60;;;;;;5072973;28;20037;-66
2022/02/17 13:51:55;;;;;;;;;;;19.50;43.20;;;;;;5072450;28;19951;-66
2022/02/17 13:54:20;;;;;;;;;;;19.50;43.30;;;;;;5056116;28;20364;-65
2022/02/17 13:56:46;;;;;;;;;;;19.50;43.20;;;;;;5073723;28;20364;-65
2022/02/17 13:59:12;;;;;;;;;;;19.50;43.00;;;;;;5072476;28;20269;-66
2022/02/17 14:01:39;;;;;;;;;;;19.60;42.90;;;;;;5073466;28;20011;-65
2022/02/17 14:04:05;;;;;;;;;;;19.60;42.90;;;;;;5087524;28;19919;-64
2022/02/17 14:06:32;;;;;;;;;;;19.60;42.90;;;;;;5066569;28;19916;-66
2022/02/17 14:08:57;;;;;;;;;;;19.60;42.70;;;;;;5083504;28;19912;-63
2022/02/17 14:11:22;;;;;;;;;;;19.70;42.50;;;;;;5087957;28;20364;-62
2022/02/17 14:13:48;;;;;;;;;;;19.80;42.30;;;;;;5087458;28;19916;-62
2022/02/17 14:16:14;;;;;;;;;;;19.70;42.40;;;;;;5061466;28;19942;-61